sensor_id;sensor_type;location;lat;lon;timestamp;temperature;humidity
23813;DHT22;12087;45.190;5.688;2023-06-10T00:01:47;19.80;99.90
23813;DHT22;12087;45.190;5.688;2023-06-10T00:07:10;19.70;99.90
23813;DHT22;12087;45.190;5.688;2023-06-10T00:12:33;19.70;99.90
23813;DHT22;12087;45.190;5.688;2023-06-10T00:17:58;19.60;99.90
23813;DHT22;12087;45.190;5.688;2023-06-10T00:23:21;19.60;99.90
23813;DHT22;12087;45.190;5.688;2023-06-10T00:28:47;19.60;99.90
23813;DHT22;12087;45.190;5.688;2023-06-10T00:34:09;19.60;99.90
23813;DHT22;12087;45.190;5.688;2023-06-10T00:39:31;19.60;99.90
23813;DHT22;12087;45.190;5.688;2023-06-10T00:44:55;19.50;99.90
23813;DHT22;12087;45.190;5.688;2023-06-10T00:50:17;19.50;99.90
23813;DHT22;12087;45.190;5.688;2023-06-10T00:55:41;19.50;99.90
23813;DHT22;12087;45.190;5.688;2023-06-10T01:01:05;19.60;99.90
23813;DHT22;12087;45.190;5.688;2023-06-10T01:06:35;19.60;99.90
23813;DHT22;12087;45.190;5.688;2023-06-10T01:12:07;19.50;99.90
23813;DHT22;12087;45.190;5.688;2023-06-10T01:17:33;19.50;99.90
23813;DHT22;12087;45.190;5.688;2023-06-10T01:22:59;19.40;99.90
23813;DHT22;12087;45.190;5.688;2023-06-10T01:28:27;19.50;99.90
23813;DHT22;12087;45.190;5.688;2023-06-10T01:33:52;19.40;99.90
23813;DHT22;12087;45.190;5.688;2023-06-10T01:39:17;19.40;99.90
23813;DHT22;12087;45.190;5.688;2023-06-10T01:44:42;19.40;99.90
23813;DHT22;12087;45.190;5.688;2023-06-10T01:50:05;19.40;99.90
23813;DHT22;12087;45.190;5.688;2023-06-10T01:55:29;19.40;99.90
23813;DHT22;12087;45.190;5.688;2023-06-10T02:00:51;19.40;99.90
23813;DHT22;12087;45.190;5.688;2023-06-10T02:06:13;19.40;99.90
23813;DHT22;12087;45.190;5.688;2023-06-10T02:11:37;19.30;99.90
23813;DHT22;12087;45.190;5.688;2023-06-10T02:16:59;19.40;99.90
23813;DHT22;12087;45.190;5.688;2023-06-10T02:22:22;19.30;99.90
23813;DHT22;12087;45.190;5.688;2023-06-10T02:27:46;19.30;99.90
23813;DHT22;12087;45.190;5.688;2023-06-10T02:33:08;19.30;99.90
23813;DHT22;12087;45.190;5.688;2023-06-10T02:38:31;19.30;99.90
23813;DHT22;12087;45.190;5.688;2023-06-10T02:43:55;19.30;99.90
23813;DHT22;12087;45.190;5.688;2023-06-10T02:49:17;19.20;99.90
23813;DHT22;12087;45.190;5.688;2023-06-10T02:54:39;19.20;99.90
23813;DHT22;12087;45.190;5.688;2023-06-10T03:00:03;19.10;99.90
23813;DHT22;12087;45.190;5.688;2023-06-10T03:05:30;19.10;99.90
23813;DHT22;12087;45.190;5.688;2023-06-10T03:10:52;19.10;99.90
23813;DHT22;12087;45.190;5.688;2023-06-10T03:16:16;19.00;99.90
23813;DHT22;12087;45.190;5.688;2023-06-10T03:21:38;19.00;99.90
23813;DHT22;12087;45.190;5.688;2023-06-10T03:27:02;18.90;99.90
23813;DHT22;12087;45.190;5.688;2023-06-10T03:32:27;18.90;99.90
23813;DHT22;12087;45.190;5.688;2023-06-10T03:37:49;18.90;99.90
23813;DHT22;12087;45.190;5.688;2023-06-10T03:43:11;18.80;99.90
23813;DHT22;12087;45.190;5.688;2023-06-10T03:48:35;18.80;99.90
23813;DHT22;12087;45.190;5.688;2023-06-10T03:53:57;18.80;99.90
23813;DHT22;12087;45.190;5.688;2023-06-10T03:59:20;18.80;99.90
23813;DHT22;12087;45.190;5.688;2023-06-10T04:04:43;18.80;99.90
23813;DHT22;12087;45.190;5.688;2023-06-10T04:10:07;18.80;99.90
23813;DHT22;12087;45.190;5.688;2023-06-10T04:15:29;18.80;99.90
23813;DHT22;12087;45.190;5.688;2023-06-10T04:20:55;18.80;99.90
23813;DHT22;12087;45.190;5.688;2023-06-10T04:26:17;18.90;99.90
23813;DHT22;12087;45.190;5.688;2023-06-10T04:31:39;18.90;99.90
23813;DHT22;12087;45.190;5.688;2023-06-10T04:37:04;18.80;99.90
23813;DHT22;12087;45.190;5.688;2023-06-10T04:42:26;18.80;99.90
23813;DHT22;12087;45.190;5.688;2023-06-10T04:47:48;18.90;99.90
23813;DHT22;12087;45.190;5.688;2023-06-10T04:53:12;18.90;99.90
23813;DHT22;12087;45.190;5.688;2023-06-10T04:58:35;18.90;99.90
23813;DHT22;12087;45.190;5.688;2023-06-10T05:03:57;18.90;99.90
23813;DHT22;12087;45.190;5.688;2023-06-10T05:09:20;18.90;99.90
23813;DHT22;12087;45.190;5.688;2023-06-10T05:14:42;19.00;99.90
23813;DHT22;12087;45.190;5.688;2023-06-10T05:20:06;19.00;99.90
23813;DHT22;12087;45.190;5.688;2023-06-10T05:25:30;19.00;99.90
23813;DHT22;12087;45.190;5.688;2023-06-10T05:30:53;19.00;99.90
23813;DHT22;12087;45.190;5.688;2023-06-10T05:36:15;19.00;99.90
23813;DHT22;12087;45.190;5.688;2023-06-10T05:41:39;19.00;99.90
23813;DHT22;12087;45.190;5.688;2023-06-10T05:47:01;19.00;99.90
23813;DHT22;12087;45.190;5.688;2023-06-10T05:52:23;19.00;99.90
23813;DHT22;12087;45.190;5.688;2023-06-10T05:57:47;19.00;99.90
23813;DHT22;12087;45.190;5.688;2023-06-10T06:03:09;19.00;99.90
23813;DHT22;12087;45.190;5.688;2023-06-10T06:08:32;19.00;99.90
23813;DHT22;12087;45.190;5.688;2023-06-10T06:13:55;19.10;99.90
23813;DHT22;12087;45.190;5.688;2023-06-10T06:19:18;19.10;99.90
23813;DHT22;12087;45.190;5.688;2023-06-10T06:24:40;19.10;99.90
23813;DHT22;12087;45.190;5.688;2023-06-10T06:30:05;19.20;99.90
23813;DHT22;12087;45.190;5.688;2023-06-10T06:35:27;19.20;99.90
23813;DHT22;12087;45.190;5.688;2023-06-10T06:40:52;19.30;99.90
23813;DHT22;12087;45.190;5.688;2023-06-10T06:46:16;19.30;99.90
23813;DHT22;12087;45.190;5.688;2023-06-10T06:57:56;19.40;99.90
23813;DHT22;12087;45.190;5.688;2023-06-10T07:03:20;19.40;99.90
23813;DHT22;12087;45.190;5.688;2023-06-10T07:08:42;19.50;99.90
23813;DHT22;12087;45.190;5.688;2023-06-10T07:14:05;19.50;99.90
23813;DHT22;12087;45.190;5.688;2023-06-10T07:19:28;19.60;99.90
23813;DHT22;12087;45.190;5.688;2023-06-10T07:24:51;19.60;99.90
23813;DHT22;12087;45.190;5.688;2023-06-10T07:30:15;19.80;99.90
23813;DHT22;12087;45.190;5.688;2023-06-10T07:35:39;20.00;99.90
23813;DHT22;12087;45.190;5.688;2023-06-10T07:41:03;20.10;99.90
23813;DHT22;12087;45.190;5.688;2023-06-10T07:46:26;20.20;99.90
23813;DHT22;12087;45.190;5.688;2023-06-10T07:51:50;20.20;99.90
23813;DHT22;12087;45.190;5.688;2023-06-10T07:57:12;20.30;99.90
23813;DHT22;12087;45.190;5.688;2023-06-10T08:02:36;20.40;99.90
23813;DHT22;12087;45.190;5.688;2023-06-10T08:08:01;20.40;99.90
23813;DHT22;12087;45.190;5.688;2023-06-10T08:13:23;20.60;99.90
23813;DHT22;12087;45.190;5.688;2023-06-10T08:18:49;20.90;99.90
23813;DHT22;12087;45.190;5.688;2023-06-10T08:24:13;21.10;99.90
23813;DHT22;12087;45.190;5.688;2023-06-10T08:29:38;21.30;99.90
23813;DHT22;12087;45.190;5.688;2023-06-10T08:35:01;21.30;99.90
23813;DHT22;12087;45.190;5.688;2023-06-10T08:40:24;21.50;99.90
23813;DHT22;12087;45.190;5.688;2023-06-10T08:45:49;21.80;99.90
23813;DHT22;12087;45.190;5.688;2023-06-10T08:51:12;22.00;99.90
23813;DHT22;12087;45.190;5.688;2023-06-10T08:56:39;22.30;99.90
23813;DHT22;12087;45.190;5.688;2023-06-10T09:02:03;22.70;99.90
23813;DHT22;12087;45.190;5.688;2023-06-10T09:07:26;23.00;99.90
23813;DHT22;12087;45.190;5.688;2023-06-10T09:12:50;23.30;99.90
23813;DHT22;12087;45.190;5.688;2023-06-10T09:18:12;23.40;99.90
23813;DHT22;12087;45.190;5.688;2023-06-10T09:23:36;23.60;99.90
23813;DHT22;12087;45.190;5.688;2023-06-10T09:29:04;23.70;99.90
23813;DHT22;12087;45.190;5.688;2023-06-10T09:34:26;23.90;99.90
23813;DHT22;12087;45.190;5.688;2023-06-10T09:40:11;24.20;99.90
23813;DHT22;12087;45.190;5.688;2023-06-10T09:45:35;24.20;99.90
23813;DHT22;12087;45.190;5.688;2023-06-10T09:50:57;24.40;99.90
23813;DHT22;12087;45.190;5.688;2023-06-10T09:56:21;24.40;99.90
23813;DHT22;12087;45.190;5.688;2023-06-10T10:01:55;24.20;99.90
23813;DHT22;12087;45.190;5.688;2023-06-10T10:07:17;24.20;99.90
23813;DHT22;12087;45.190;5.688;2023-06-10T10:12:40;24.50;99.90
23813;DHT22;12087;45.190;5.688;2023-06-10T10:18:07;24.90;99.90
23813;DHT22;12087;45.190;5.688;2023-06-10T10:23:34;25.20;99.90
23813;DHT22;12087;45.190;5.688;2023-06-10T10:29:05;25.40;99.90
23813;DHT22;12087;45.190;5.688;2023-06-10T10:34:43;25.60;99.90
23813;DHT22;12087;45.190;5.688;2023-06-10T10:40:08;25.80;99.90
23813;DHT22;12087;45.190;5.688;2023-06-10T10:45:30;26.10;99.90
23813;DHT22;12087;45.190;5.688;2023-06-10T10:50:58;26.30;99.90
23813;DHT22;12087;45.190;5.688;2023-06-10T10:56:20;26.50;99.90
23813;DHT22;12087;45.190;5.688;2023-06-10T11:01:43;26.50;99.90
23813;DHT22;12087;45.190;5.688;2023-06-10T11:07:09;26.60;99.90
23813;DHT22;12087;45.190;5.688;2023-06-10T11:12:52;26.60;99.90
23813;DHT22;12087;45.190;5.688;2023-06-10T11:18:24;26.50;99.90
23813;DHT22;12087;45.190;5.688;2023-06-10T11:23:47;26.20;99.90
23813;DHT22;12087;45.190;5.688;2023-06-10T11:29:11;26.10;99.90
23813;DHT22;12087;45.190;5.688;2023-06-10T11:34:33;26.00;99.90
23813;DHT22;12087;45.190;5.688;2023-06-10T11:39:59;26.20;99.90
23813;DHT22;12087;45.190;5.688;2023-06-10T11:45:21;26.80;99.90
23813;DHT22;12087;45.190;5.688;2023-06-10T11:50:43;27.00;99.90
23813;DHT22;12087;45.190;5.688;2023-06-10T11:56:07;27.50;99.90
23813;DHT22;12087;45.190;5.688;2023-06-10T12:01:29;27.20;99.90
23813;DHT22;12087;45.190;5.688;2023-06-10T12:06:53;26.90;99.90
23813;DHT22;12087;45.190;5.688;2023-06-10T12:12:17;26.90;99.90
23813;DHT22;12087;45.190;5.688;2023-06-10T12:17:42;26.90;99.90
23813;DHT22;12087;45.190;5.688;2023-06-10T12:23:09;26.80;99.90
23813;DHT22;12087;45.190;5.688;2023-06-10T12:28:33;26.80;99.90
23813;DHT22;12087;45.190;5.688;2023-06-10T12:34:07;26.70;99.90
23813;DHT22;12087;45.190;5.688;2023-06-10T12:39:31;26.50;99.90
23813;DHT22;12087;45.190;5.688;2023-06-10T12:44:55;26.40;99.90
23813;DHT22;12087;45.190;5.688;2023-06-10T12:50:22;26.60;99.90
23813;DHT22;12087;45.190;5.688;2023-06-10T12:55:44;27.00;99.90
23813;DHT22;12087;45.190;5.688;2023-06-10T13:01:08;27.00;99.90
23813;DHT22;12087;45.190;5.688;2023-06-10T13:06:30;26.70;99.90
23813;DHT22;12087;45.190;5.688;2023-06-10T13:11:54;27.00;99.90
23813;DHT22;12087;45.190;5.688;2023-06-10T13:17:17;26.90;99.90
23813;DHT22;12087;45.190;5.688;2023-06-10T13:22:40;27.70;99.90
23813;DHT22;12087;45.190;5.688;2023-06-10T13:28:03;28.20;99.90
23813;DHT22;12087;45.190;5.688;2023-06-10T13:33:26;28.50;98.70
23813;DHT22;12087;45.190;5.688;2023-06-10T13:38:49;28.90;98.90
23813;DHT22;12087;45.190;5.688;2023-06-10T13:44:11;29.00;98.40
23813;DHT22;12087;45.190;5.688;2023-06-10T13:49:34;29.30;98.40
23813;DHT22;12087;45.190;5.688;2023-06-10T13:54:57;29.20;98.00
23813;DHT22;12087;45.190;5.688;2023-06-10T14:00:19;29.40;98.10
23813;DHT22;12087;45.190;5.688;2023-06-10T14:05:43;29.60;97.40
23813;DHT22;12087;45.190;5.688;2023-06-10T14:11:06;29.60;98.10
23813;DHT22;12087;45.190;5.688;2023-06-10T14:16:29;29.70;99.10
23813;DHT22;12087;45.190;5.688;2023-06-10T14:21:52;29.60;97.80
23813;DHT22;12087;45.190;5.688;2023-06-10T14:27:16;29.60;97.20
23813;DHT22;12087;45.190;5.688;2023-06-10T14:32:38;29.20;96.90
23813;DHT22;12087;45.190;5.688;2023-06-10T14:38:02;29.10;97.40
23813;DHT22;12087;45.190;5.688;2023-06-10T14:43:24;29.00;99.00
23813;DHT22;12087;45.190;5.688;2023-06-10T14:48:46;29.00;97.90
23813;DHT22;12087;45.190;5.688;2023-06-10T14:54:09;28.80;98.80
23813;DHT22;12087;45.190;5.688;2023-06-10T14:59:32;28.60;98.50
23813;DHT22;12087;45.190;5.688;2023-06-10T15:04:54;28.30;99.30
23813;DHT22;12087;45.190;5.688;2023-06-10T15:10:18;28.10;99.90
23813;DHT22;12087;45.190;5.688;2023-06-10T15:15:42;28.00;99.90
23813;DHT22;12087;45.190;5.688;2023-06-10T15:21:05;28.10;99.90
23813;DHT22;12087;45.190;5.688;2023-06-10T15:26:28;27.90;99.90
23813;DHT22;12087;45.190;5.688;2023-06-10T15:31:52;27.70;99.90
23813;DHT22;12087;45.190;5.688;2023-06-10T15:37:15;27.60;99.90
23813;DHT22;12087;45.190;5.688;2023-06-10T15:42:40;27.50;99.90
23813;DHT22;12087;45.190;5.688;2023-06-10T15:48:05;27.50;99.90
23813;DHT22;12087;45.190;5.688;2023-06-10T15:53:27;27.50;99.90
23813;DHT22;12087;45.190;5.688;2023-06-10T15:58:50;27.20;99.90
23813;DHT22;12087;45.190;5.688;2023-06-10T16:04:13;27.10;99.90
23813;DHT22;12087;45.190;5.688;2023-06-10T16:09:35;26.90;99.90
23813;DHT22;12087;45.190;5.688;2023-06-10T16:14:58;26.70;99.90
23813;DHT22;12087;45.190;5.688;2023-06-10T16:20:22;26.50;99.90
23813;DHT22;12087;45.190;5.688;2023-06-10T16:25:44;26.50;99.90
23813;DHT22;12087;45.190;5.688;2023-06-10T16:31:08;26.30;99.90
23813;DHT22;12087;45.190;5.688;2023-06-10T16:36:30;26.30;99.90
23813;DHT22;12087;45.190;5.688;2023-06-10T16:41:52;26.20;99.90
23813;DHT22;12087;45.190;5.688;2023-06-10T16:47:16;26.10;99.90
23813;DHT22;12087;45.190;5.688;2023-06-10T16:52:38;26.10;99.90
23813;DHT22;12087;45.190;5.688;2023-06-10T16:58:00;26.20;99.90
23813;DHT22;12087;45.190;5.688;2023-06-10T17:03:24;26.10;99.90
23813;DHT22;12087;45.190;5.688;2023-06-10T17:08:47;25.90;99.90
23813;DHT22;12087;45.190;5.688;2023-06-10T17:14:10;25.90;99.90
23813;DHT22;12087;45.190;5.688;2023-06-10T17:19:34;25.90;99.90
23813;DHT22;12087;45.190;5.688;2023-06-10T17:24:56;25.80;99.90
23813;DHT22;12087;45.190;5.688;2023-06-10T17:30:18;25.70;99.90
23813;DHT22;12087;45.190;5.688;2023-06-10T17:35:42;25.70;99.90
23813;DHT22;12087;45.190;5.688;2023-06-10T17:41:04;25.60;99.90
23813;DHT22;12087;45.190;5.688;2023-06-10T17:46:28;25.60;99.90
23813;DHT22;12087;45.190;5.688;2023-06-10T17:51:51;25.50;99.90
23813;DHT22;12087;45.190;5.688;2023-06-10T17:57:13;25.40;99.90
23813;DHT22;12087;45.190;5.688;2023-06-10T18:02:35;25.40;99.90
23813;DHT22;12087;45.190;5.688;2023-06-10T18:07:59;25.30;99.90
23813;DHT22;12087;45.190;5.688;2023-06-10T18:13:21;25.20;99.90
23813;DHT22;12087;45.190;5.688;2023-06-10T18:18:44;25.10;99.90
23813;DHT22;12087;45.190;5.688;2023-06-10T18:24:08;25.00;99.90
23813;DHT22;12087;45.190;5.688;2023-06-10T18:29:30;24.90;99.90
23813;DHT22;12087;45.190;5.688;2023-06-10T18:34:52;24.80;99.90
23813;DHT22;12087;45.190;5.688;2023-06-10T18:40:16;24.70;99.90
23813;DHT22;12087;45.190;5.688;2023-06-10T18:45:39;24.60;99.90
23813;DHT22;12087;45.190;5.688;2023-06-10T18:51:01;24.60;99.90
23813;DHT22;12087;45.190;5.688;2023-06-10T18:56:25;24.50;99.90
23813;DHT22;12087;45.190;5.688;2023-06-10T19:01:48;24.40;99.90
23813;DHT22;12087;45.190;5.688;2023-06-10T19:07:10;24.40;99.90
23813;DHT22;12087;45.190;5.688;2023-06-10T19:12:34;24.30;99.90
23813;DHT22;12087;45.190;5.688;2023-06-10T19:17:56;24.20;99.90
23813;DHT22;12087;45.190;5.688;2023-06-10T19:23:18;24.00;99.90
23813;DHT22;12087;45.190;5.688;2023-06-10T19:28:42;23.90;99.90
23813;DHT22;12087;45.190;5.688;2023-06-10T19:34:04;23.80;99.90
23813;DHT22;12087;45.190;5.688;2023-06-10T19:39:26;23.80;99.90
23813;DHT22;12087;45.190;5.688;2023-06-10T19:44:50;23.70;99.90
23813;DHT22;12087;45.190;5.688;2023-06-10T19:50:13;23.60;99.90
23813;DHT22;12087;45.190;5.688;2023-06-10T19:55:35;23.60;99.90
23813;DHT22;12087;45.190;5.688;2023-06-10T20:00:58;23.40;99.90
23813;DHT22;12087;45.190;5.688;2023-06-10T20:06:21;23.40;99.90
23813;DHT22;12087;45.190;5.688;2023-06-10T20:11:43;23.20;99.90
23813;DHT22;12087;45.190;5.688;2023-06-10T20:17:07;23.20;99.90
23813;DHT22;12087;45.190;5.688;2023-06-10T20:22:29;23.20;99.90
23813;DHT22;12087;45.190;5.688;2023-06-10T20:27:51;23.10;99.90
23813;DHT22;12087;45.190;5.688;2023-06-10T20:33:15;22.90;99.90
23813;DHT22;12087;45.190;5.688;2023-06-10T20:38:37;22.90;99.90
23813;DHT22;12087;45.190;5.688;2023-06-10T20:43:59;22.80;99.90
23813;DHT22;12087;45.190;5.688;2023-06-10T20:49:23;22.80;99.90
23813;DHT22;12087;45.190;5.688;2023-06-10T20:54:45;22.70;99.90
23813;DHT22;12087;45.190;5.688;2023-06-10T21:00:08;22.60;99.90
23813;DHT22;12087;45.190;5.688;2023-06-10T21:05:32;22.60;99.90
23813;DHT22;12087;45.190;5.688;2023-06-10T21:10:55;22.60;99.90
23813;DHT22;12087;45.190;5.688;2023-06-10T21:16:17;22.50;99.90
23813;DHT22;12087;45.190;5.688;2023-06-10T21:21:41;22.50;99.90
23813;DHT22;12087;45.190;5.688;2023-06-10T21:27:03;22.50;99.90
23813;DHT22;12087;45.190;5.688;2023-06-10T21:32:26;22.30;99.90
23813;DHT22;12087;45.190;5.688;2023-06-10T21:37:50;22.30;99.90
23813;DHT22;12087;45.190;5.688;2023-06-10T21:43:12;22.30;99.90
23813;DHT22;12087;45.190;5.688;2023-06-10T21:48:35;22.20;99.90
23813;DHT22;12087;45.190;5.688;2023-06-10T21:53:58;22.20;99.90
23813;DHT22;12087;45.190;5.688;2023-06-10T21:59:21;22.20;99.90
23813;DHT22;12087;45.190;5.688;2023-06-10T22:04:44;22.20;99.90
23813;DHT22;12087;45.190;5.688;2023-06-10T22:10:08;22.10;99.90
23813;DHT22;12087;45.190;5.688;2023-06-10T22:15:30;22.20;99.90
23813;DHT22;12087;45.190;5.688;2023-06-10T22:20:53;22.00;99.90
23813;DHT22;12087;45.190;5.688;2023-06-10T22:26:16;22.00;99.90
23813;DHT22;12087;45.190;5.688;2023-06-10T22:31:39;21.90;99.90
23813;DHT22;12087;45.190;5.688;2023-06-10T22:37:01;21.80;99.90
23813;DHT22;12087;45.190;5.688;2023-06-10T22:42:24;21.80;99.90
23813;DHT22;12087;45.190;5.688;2023-06-10T22:47:47;21.70;99.90
23813;DHT22;12087;45.190;5.688;2023-06-10T22:53:09;21.70;99.90
23813;DHT22;12087;45.190;5.688;2023-06-10T22:58:33;21.60;99.90
23813;DHT22;12087;45.190;5.688;2023-06-10T23:03:55;21.50;99.90
23813;DHT22;12087;45.190;5.688;2023-06-10T23:09:18;21.50;99.90
23813;DHT22;12087;45.190;5.688;2023-06-10T23:14:41;21.50;99.90
23813;DHT22;12087;45.190;5.688;2023-06-10T23:20:04;21.40;99.90
23813;DHT22;12087;45.190;5.688;2023-06-10T23:25:27;21.40;99.90
23813;DHT22;12087;45.190;5.688;2023-06-10T23:30:51;21.30;99.90
23813;DHT22;12087;45.190;5.688;2023-06-10T23:36:13;21.30;99.90
23813;DHT22;12087;45.190;5.688;2023-06-10T23:41:37;21.20;99.90
23813;DHT22;12087;45.190;5.688;2023-06-10T23:47:00;21.10;99.90
23813;DHT22;12087;45.190;5.688;2023-06-10T23:52:22;21.10;99.90
23813;DHT22;12087;45.190;5.688;2023-06-10T23:57:44;21.00;99.90
